createdAt,value
2024-01-09T00:01:33.082Z,0.44
2024-01-09T00:04:01.090Z,0.36
2024-01-09T00:06:29.226Z,0.35
2024-01-09T00:09:00.049Z,0.44
2024-01-09T00:11:28.405Z,0.47
2024-01-09T00:13:59.248Z,0.48
2024-01-09T00:16:27.319Z,0.32
2024-01-09T00:18:55.937Z,0.27
2024-01-09T00:21:24.896Z,0.22
2024-01-09T00:23:52.945Z,0.08
2024-01-09T00:26:22.912Z,0.09
2024-01-09T00:28:51.101Z,0.19
2024-01-09T00:31:19.235Z,0.14
2024-01-09T00:33:47.450Z,0.14
2024-01-09T00:36:15.529Z,0.12
2024-01-09T00:38:43.701Z,0.12
2024-01-09T00:41:11.802Z,0.26
2024-01-09T00:43:39.842Z,0.36
2024-01-09T00:46:07.921Z,0.38
2024-01-09T00:48:36.493Z,0.46
2024-01-09T00:51:04.886Z,0.49
2024-01-09T00:53:32.964Z,0.36
2024-01-09T00:56:00.977Z,0.39
2024-01-09T00:58:29.902Z,0.26
2024-01-09T01:00:57.899Z,0.50
2024-01-09T01:03:26.121Z,0.52
2024-01-09T01:05:54.091Z,0.42
2024-01-09T01:08:22.790Z,0.43
2024-01-09T01:10:50.781Z,0.45
2024-01-09T01:13:18.709Z,0.37
2024-01-09T01:15:46.823Z,0.42
2024-01-09T01:18:15.188Z,0.34
2024-01-09T01:20:43.473Z,0.44
2024-01-09T01:23:11.499Z,0.41
2024-01-09T01:25:39.796Z,0.32
2024-01-09T01:28:07.947Z,0.50
2024-01-09T01:30:36.070Z,0.48
2024-01-09T01:33:04.901Z,0.48
2024-01-09T01:35:33.181Z,0.36
2024-01-09T01:38:01.230Z,0.24
2024-01-09T01:40:29.379Z,0.33
2024-01-09T01:42:58.648Z,0.26
2024-01-09T01:45:26.917Z,0.20
2024-01-09T01:47:55.441Z,0.03
2024-01-09T01:50:24.281Z,0.09
2024-01-09T01:52:53.105Z,0.12
2024-01-09T01:55:26.620Z,0.01
2024-01-09T01:57:58.198Z,-0.08
2024-01-09T02:00:27.769Z,-0.09
2024-01-09T02:02:56.289Z,-0.08
2024-01-09T02:05:27.353Z,-0.05
2024-01-09T02:07:57.693Z,-0.20
2024-01-09T02:10:25.832Z,0.03
2024-01-09T02:12:54.252Z,0.09
2024-01-09T02:15:22.300Z,0.15
2024-01-09T02:17:50.722Z,0.12
2024-01-09T02:20:23.696Z,0.10
2024-01-09T02:22:51.853Z,0.13
2024-01-09T02:25:20.263Z,0.05
2024-01-09T02:28:07.612Z,0.00
2024-01-09T02:30:37.406Z,-0.05
2024-01-09T02:33:07.808Z,-0.08
2024-01-09T02:35:36.121Z,-0.05
2024-01-09T02:38:04.387Z,-0.07
2024-01-09T02:40:32.751Z,-0.11
2024-01-09T02:43:00.756Z,-0.05
2024-01-09T02:45:28.781Z,-0.02
2024-01-09T02:47:57.335Z,0.00
2024-01-09T02:50:25.488Z,0.05
2024-01-09T02:52:54.912Z,0.03
2024-01-09T02:55:22.894Z,-0.06
2024-01-09T02:57:51.820Z,-0.05
2024-01-09T03:02:59.180Z,-0.22
2024-01-09T03:05:27.685Z,-0.20
2024-01-09T03:07:55.935Z,-0.09
2024-01-09T03:10:26.027Z,0.00
2024-01-09T03:12:53.972Z,-0.06
2024-01-09T03:15:22.131Z,-0.13
2024-01-09T03:17:50.292Z,-0.03
2024-01-09T03:20:18.576Z,-0.08
2024-01-09T03:22:46.568Z,-0.02
2024-01-09T03:25:14.564Z,-0.07
2024-01-09T03:27:42.589Z,0.02
2024-01-09T03:30:11.280Z,0.08
2024-01-09T03:32:39.271Z,0.19
2024-01-09T03:35:07.925Z,0.20
2024-01-09T03:37:35.888Z,0.17
2024-01-09T03:40:03.874Z,0.15
2024-01-09T03:42:31.925Z,0.19
2024-01-09T03:44:59.941Z,0.19
2024-01-09T03:47:28.043Z,0.03
2024-01-09T03:49:56.119Z,0.04
2024-01-09T03:52:24.527Z,0.15
2024-01-09T03:54:52.690Z,0.08
2024-01-09T03:57:20.638Z,0.13
2024-01-09T03:59:48.782Z,0.06
2024-01-09T04:02:17.341Z,0.26
2024-01-09T04:04:45.419Z,0.36
2024-01-09T04:07:13.474Z,0.39
2024-01-09T04:09:41.527Z,0.40
2024-01-09T04:12:09.610Z,0.49
2024-01-09T04:14:37.986Z,0.60
2024-01-09T04:17:06.157Z,0.74
2024-01-09T04:19:38.312Z,0.78
2024-01-09T04:22:09.579Z,0.79
2024-01-09T04:24:37.725Z,0.70
2024-01-09T04:27:05.921Z,0.67
2024-01-09T04:29:34.127Z,0.65
2024-01-09T04:32:02.148Z,0.55
2024-01-09T04:34:30.323Z,0.52
2024-01-09T04:36:58.593Z,0.38
2024-01-09T04:39:26.712Z,0.32
2024-01-09T04:41:55.026Z,0.43
2024-01-09T04:44:23.522Z,0.53
2024-01-09T04:46:51.804Z,0.50
2024-01-09T04:49:19.956Z,0.50
2024-01-09T04:51:48.050Z,0.65
2024-01-09T04:54:16.194Z,0.76
2024-01-09T04:56:44.603Z,0.79
2024-01-09T04:59:12.630Z,0.84
2024-01-09T05:01:40.638Z,0.86
2024-01-09T05:04:10.327Z,0.93
2024-01-09T05:06:38.834Z,0.82
2024-01-09T05:09:06.770Z,0.75
2024-01-09T05:11:34.930Z,0.68
2024-01-09T05:14:03.031Z,0.34
2024-01-09T05:16:31.173Z,0.55
2024-01-09T05:18:59.243Z,0.57
2024-01-09T05:21:27.574Z,0.66
2024-01-09T05:23:55.682Z,0.70
2024-01-09T05:26:24.062Z,0.69
2024-01-09T05:28:52.040Z,0.78
2024-01-09T05:31:20.329Z,0.80
2024-01-09T05:33:49.179Z,0.87
2024-01-09T05:36:24.033Z,0.90
2024-01-09T05:38:52.965Z,0.92
2024-01-09T05:41:22.618Z,0.89
2024-01-09T05:43:51.371Z,0.87
2024-01-09T05:46:19.384Z,0.74
2024-01-09T05:48:48.325Z,0.71
2024-01-09T05:51:16.659Z,0.43
2024-01-09T05:53:47.659Z,0.24
2024-01-09T05:56:16.056Z,0.49
2024-01-09T05:58:44.264Z,0.48
2024-01-09T06:01:12.725Z,0.66
2024-01-09T06:03:40.863Z,0.73
2024-01-09T06:06:09.089Z,0.57
2024-01-09T06:08:37.137Z,0.42
2024-01-09T06:11:05.677Z,0.50
2024-01-09T06:13:33.681Z,0.65
2024-01-09T06:16:01.782Z,0.68
2024-01-09T06:18:29.890Z,0.76
2024-01-09T06:20:58.078Z,0.67
2024-01-09T06:23:26.181Z,0.49
2024-01-09T06:25:54.154Z,0.45
2024-01-09T06:28:22.271Z,0.35
2024-01-09T06:30:50.436Z,0.27
2024-01-09T06:33:18.597Z,0.42
2024-01-09T06:35:46.702Z,0.43
2024-01-09T06:38:15.542Z,0.42
2024-01-09T06:40:43.581Z,0.42
2024-01-09T06:43:11.727Z,0.22
2024-01-09T06:45:39.638Z,0.26
2024-01-09T06:48:08.033Z,0.10
2024-01-09T06:50:38.293Z,0.19
2024-01-09T06:53:06.619Z,-0.06
2024-01-09T06:55:34.854Z,0.05
2024-01-09T06:58:05.760Z,0.13
2024-01-09T07:00:35.750Z,0.16
2024-01-09T07:03:04.214Z,0.18
2024-01-09T07:05:32.317Z,0.18
2024-01-09T07:08:00.438Z,0.18
2024-01-09T07:10:28.867Z,0.26
2024-01-09T07:12:58.034Z,0.14
2024-01-09T07:15:26.234Z,0.13
2024-01-09T07:17:54.552Z,0.14
2024-01-09T07:20:22.610Z,0.00
2024-01-09T07:22:58.670Z,0.13
2024-01-09T07:25:30.885Z,0.10
2024-01-09T07:27:58.771Z,-0.08
2024-01-09T07:30:27.147Z,-0.07
2024-01-09T07:32:55.519Z,-0.17
2024-01-09T07:35:23.957Z,-0.09
2024-01-09T07:37:51.939Z,-0.30
2024-01-09T07:40:20.400Z,-0.34
2024-01-09T07:42:56.919Z,-0.35
2024-01-09T07:45:32.065Z,-0.42
2024-01-09T07:48:01.486Z,-0.38
2024-01-09T07:50:29.771Z,-0.46
2024-01-09T07:52:57.982Z,-0.46
2024-01-09T07:55:26.772Z,-0.40
2024-01-09T07:57:54.916Z,-0.51
2024-01-09T08:00:23.074Z,-0.41
2024-01-09T08:02:51.123Z,-0.35
2024-01-09T08:05:19.577Z,-0.22
2024-01-09T08:07:47.662Z,-0.18
2024-01-09T08:10:16.322Z,-0.14
2024-01-09T08:12:44.662Z,-0.14
2024-01-09T08:15:13.024Z,-0.23
2024-01-09T08:17:41.637Z,-0.28
2024-01-09T08:20:10.549Z,-0.32
2024-01-09T08:22:39.061Z,-0.44
2024-01-09T08:25:07.899Z,-0.44
2024-01-09T08:27:36.291Z,-0.54
2024-01-09T08:30:05.596Z,-0.47
2024-01-09T08:32:33.769Z,-0.63
2024-01-09T08:35:03.107Z,-0.49
2024-01-09T08:37:31.214Z,-0.54
2024-01-09T08:39:59.699Z,-0.65
2024-01-09T08:42:27.666Z,-0.60
2024-01-09T08:44:55.942Z,-0.56
2024-01-09T08:47:24.068Z,-0.58
2024-01-09T08:49:52.908Z,-0.58
2024-01-09T08:52:26.436Z,-0.59
2024-01-09T08:54:55.338Z,-0.63
2024-01-09T08:57:23.842Z,-0.71
2024-01-09T08:59:51.937Z,-1.04
2024-01-09T09:02:20.076Z,-0.82
2024-01-09T09:04:48.300Z,-0.71
2024-01-09T09:07:17.182Z,-0.64
2024-01-09T09:09:45.726Z,-0.47
2024-01-09T09:12:15.357Z,-0.42
2024-01-09T09:14:43.398Z,-0.35
2024-01-09T09:17:13.879Z,-0.34
2024-01-09T09:19:42.118Z,-0.49
2024-01-09T09:22:10.262Z,-0.47
2024-01-09T09:24:38.469Z,-0.42
2024-01-09T09:27:06.534Z,-0.56
2024-01-09T09:29:38.131Z,-0.56
2024-01-09T09:32:07.780Z,-0.79
2024-01-09T09:34:36.294Z,-0.89
2024-01-09T09:37:04.797Z,-1.00
2024-01-09T09:39:32.883Z,-0.89
2024-01-09T09:42:01.268Z,-0.94
2024-01-09T09:44:29.803Z,-0.87
2024-01-09T09:47:00.460Z,-0.64
2024-01-09T09:49:29.794Z,-0.54
2024-01-09T09:51:59.616Z,-0.55
2024-01-09T09:54:27.680Z,-0.51
2024-01-09T09:56:55.787Z,-0.47
2024-01-09T09:59:23.974Z,-0.35
2024-01-09T10:01:53.505Z,-0.63
2024-01-09T10:04:36.857Z,-0.35
2024-01-09T10:07:07.842Z,-0.43
2024-01-09T10:09:39.343Z,-0.48
2024-01-09T10:12:07.958Z,-0.34
2024-01-09T10:14:36.020Z,-0.21
2024-01-09T10:17:06.867Z,-0.14
2024-01-09T10:19:35.123Z,-0.21
2024-01-09T10:22:03.949Z,-0.38
2024-01-09T10:24:38.347Z,-0.47
2024-01-09T10:27:09.722Z,-0.66
2024-01-09T10:29:44.071Z,-0.64
2024-01-09T10:32:15.638Z,-0.60
2024-01-09T10:34:45.280Z,-0.74
2024-01-09T10:37:15.249Z,-0.66
2024-01-09T10:39:48.057Z,-0.64
2024-01-09T10:42:16.384Z,-0.89
2024-01-09T10:44:47.908Z,-0.72
2024-01-09T10:47:17.738Z,-0.69
2024-01-09T10:49:46.968Z,-0.98
2024-01-09T10:52:16.962Z,-0.81
2024-01-09T10:54:46.322Z,-0.66
2024-01-09T10:57:15.316Z,-0.44
2024-01-09T10:59:45.806Z,-0.33
2024-01-09T11:02:17.321Z,-0.31
2024-01-09T11:04:46.217Z,-0.38
2024-01-09T11:07:18.116Z,-0.33
2024-01-09T11:09:48.755Z,-0.37
2024-01-09T11:12:24.639Z,-0.53
2024-01-09T11:15:12.984Z,-0.59
2024-01-09T11:17:43.403Z,-0.59
2024-01-09T11:20:15.839Z,-0.63
2024-01-09T11:22:44.182Z,-0.46
2024-01-09T11:25:18.650Z,-0.45
2024-01-09T11:27:51.590Z,-0.56
2024-01-09T11:30:24.395Z,-0.70
2024-01-09T11:32:53.357Z,-0.73
2024-01-09T11:35:24.876Z,-0.82
2024-01-09T11:37:53.473Z,-0.80
2024-01-09T11:40:25.926Z,-0.83
2024-01-09T11:42:54.408Z,-0.95
2024-01-09T11:45:24.334Z,-1.05
2024-01-09T11:47:55.314Z,-0.88
2024-01-09T11:50:23.920Z,-0.89
2024-01-09T11:52:52.309Z,-1.17
2024-01-09T11:55:20.417Z,-1.36
2024-01-09T11:57:48.575Z,-1.60
2024-01-09T12:00:17.204Z,-1.56
2024-01-09T12:02:45.644Z,-1.58
2024-01-09T12:05:13.830Z,-1.66
2024-01-09T12:07:42.016Z,-1.73
2024-01-09T12:10:21.604Z,-1.87
2024-01-09T12:13:06.416Z,-1.98
2024-01-09T12:15:34.692Z,-2.04
2024-01-09T12:18:04.061Z,-2.18
2024-01-09T12:20:33.489Z,-2.00
2024-01-09T12:23:02.898Z,-2.06
2024-01-09T12:25:31.746Z,-2.02
2024-01-09T12:28:01.306Z,-2.28
2024-01-09T12:30:29.948Z,-2.23
2024-01-09T12:32:58.938Z,-2.13
2024-01-09T12:35:27.173Z,-1.99
2024-01-09T12:37:55.474Z,-1.99
2024-01-09T12:40:23.646Z,-1.83
2024-01-09T12:43:12.613Z,-1.85
2024-01-09T12:45:41.493Z,-2.12
2024-01-09T12:48:11.076Z,-1.93
2024-01-09T12:50:39.615Z,-1.98
2024-01-09T12:53:09.227Z,-2.05
2024-01-09T12:55:37.543Z,-1.83
2024-01-09T12:58:05.610Z,-1.88
2024-01-09T13:00:33.949Z,-1.89
2024-01-09T13:03:02.157Z,-2.04
2024-01-09T13:05:30.418Z,-2.02
2024-01-09T13:07:58.677Z,-2.02
2024-01-09T13:10:27.031Z,-2.13
2024-01-09T13:12:55.109Z,-2.29
2024-01-09T13:15:23.319Z,-2.36
2024-01-09T13:17:51.431Z,-2.20
2024-01-09T13:20:19.612Z,-2.01
2024-01-09T13:25:18.790Z,-2.07
2024-01-09T13:27:47.247Z,-1.99
2024-01-09T13:32:46.489Z,-2.17
2024-01-09T13:35:14.644Z,-2.46
2024-01-09T13:37:45.333Z,-2.48
2024-01-09T13:40:13.624Z,-2.56
2024-01-09T13:42:42.447Z,-2.59
2024-01-09T13:45:11.099Z,-2.65
2024-01-09T13:47:42.910Z,-2.74
2024-01-09T13:51:47.134Z,-2.60
2024-01-09T13:53:00.706Z,-2.68
2024-01-09T13:55:29.172Z,-2.68
2024-01-09T13:57:57.199Z,-2.65
2024-01-09T14:00:25.469Z,-2.78
2024-01-09T14:02:55.190Z,-2.97
2024-01-09T14:05:25.545Z,-3.00
2024-01-09T14:07:53.685Z,-3.14
2024-01-09T14:10:23.536Z,-3.13
2024-01-09T14:12:52.583Z,-3.19
2024-01-09T14:15:20.722Z,-3.28
2024-01-09T14:17:49.377Z,-2.94
2024-01-09T14:20:18.240Z,-3.05
2024-01-09T14:22:47.010Z,-3.06
2024-01-09T14:25:15.515Z,-2.95
2024-01-09T14:27:43.656Z,-2.80
2024-01-09T14:30:12.309Z,-2.67
2024-01-09T14:32:41.577Z,-2.53
2024-01-09T14:35:10.402Z,-2.64
2024-01-09T14:37:40.432Z,-2.62
2024-01-09T14:40:13.230Z,-2.57
2024-01-09T14:42:41.493Z,-2.65
2024-01-09T14:45:12.020Z,-2.59
2024-01-09T14:47:40.854Z,-2.58
2024-01-09T14:50:09.538Z,-2.73
2024-01-09T14:52:37.705Z,-2.74
2024-01-09T14:55:06.945Z,-2.76
2024-01-09T14:57:35.200Z,-3.00
2024-01-09T15:00:06.157Z,-3.13
2024-01-09T15:02:34.548Z,-3.31
2024-01-09T15:05:03.323Z,-3.29
2024-01-09T15:07:31.677Z,-3.45
2024-01-09T15:09:59.800Z,-3.46
2024-01-09T15:12:31.238Z,-3.80
2024-01-09T15:14:59.780Z,-3.67
2024-01-09T15:17:30.834Z,-3.67
2024-01-09T15:19:59.420Z,-3.78
2024-01-09T15:22:27.732Z,-3.70
2024-01-09T15:24:56.444Z,-3.61
2024-01-09T15:27:25.826Z,-3.46
2024-01-09T15:29:55.516Z,-3.39
2024-01-09T15:32:24.297Z,-3.58
2024-01-09T15:34:54.014Z,-3.37
2024-01-09T15:37:23.618Z,-3.19
2024-01-09T15:39:51.718Z,-3.18
2024-01-09T15:42:20.959Z,-3.36
2024-01-09T15:44:50.456Z,-3.43
2024-01-09T15:47:18.952Z,-3.24
2024-01-09T15:49:48.281Z,-3.19
2024-01-09T15:52:17.508Z,-3.24
2024-01-09T15:54:46.072Z,-3.22
2024-01-09T15:57:15.032Z,-3.31
2024-01-09T15:59:44.369Z,-3.42
2024-01-09T16:02:13.173Z,-3.38
2024-01-09T16:04:43.858Z,-3.38
2024-01-09T16:07:13.481Z,-3.21
2024-01-09T16:09:43.284Z,-3.07
2024-01-09T16:12:11.262Z,-3.07
2024-01-09T16:14:40.797Z,-3.22
2024-01-09T16:17:09.788Z,-3.13
2024-01-09T16:19:38.598Z,-3.18
2024-01-09T16:22:08.955Z,-3.20
2024-01-09T16:24:38.452Z,-3.32
2024-01-09T16:27:07.584Z,-3.26
2024-01-09T16:29:36.292Z,-3.43
2024-01-09T16:32:05.917Z,-3.45
2024-01-09T16:34:35.100Z,-3.28
2024-01-09T16:37:03.966Z,-3.10
2024-01-09T16:39:32.892Z,-3.12
2024-01-09T16:42:01.786Z,-3.16
2024-01-09T16:44:30.434Z,-3.39
2024-01-09T16:47:00.344Z,-3.41
2024-01-09T16:49:29.729Z,-3.43
2024-01-09T16:51:58.578Z,-3.50
2024-01-09T16:54:27.186Z,-3.26
2024-01-09T16:56:55.817Z,-3.15
2024-01-09T16:59:25.494Z,-3.11
2024-01-09T17:01:55.114Z,-3.08
2024-01-09T17:04:24.030Z,-3.03
2024-01-09T17:06:53.484Z,-3.04
2024-01-09T17:09:22.323Z,-3.28
2024-01-09T17:11:51.126Z,-3.25
2024-01-09T17:14:19.901Z,-3.33
2024-01-09T17:16:51.419Z,-3.21
2024-01-09T17:19:25.712Z,-3.30
2024-01-09T17:21:54.149Z,-3.35
2024-01-09T17:24:23.113Z,-3.30
2024-01-09T17:26:51.684Z,-3.26
2024-01-09T17:29:21.248Z,-3.50
2024-01-09T17:31:50.004Z,-3.33
2024-01-09T17:34:19.158Z,-3.18
2024-01-09T17:36:49.339Z,-3.14
2024-01-09T17:39:19.719Z,-3.04
2024-01-09T17:41:48.605Z,-3.01
2024-01-09T17:44:17.295Z,-3.28
2024-01-09T17:46:45.959Z,-3.22
2024-01-09T17:49:15.480Z,-3.05
2024-01-09T17:51:43.999Z,-2.96
2024-01-09T17:54:12.987Z,-3.20
2024-01-09T17:56:41.848Z,-3.23
2024-01-09T17:59:10.900Z,-3.09
2024-01-09T18:01:46.364Z,-3.42
2024-01-09T18:04:21.149Z,-3.17
2024-01-09T18:06:50.762Z,-3.47
2024-01-09T18:09:27.437Z,-3.31
2024-01-09T18:11:56.814Z,-3.33
2024-01-09T18:14:25.515Z,-3.36
2024-01-09T18:16:54.161Z,-3.39
2024-01-09T18:19:22.715Z,-3.24
2024-01-09T18:21:51.643Z,-3.38
2024-01-09T18:24:20.463Z,-3.25
2024-01-09T18:26:54.020Z,-3.23
2024-01-09T18:29:24.837Z,-3.14
2024-01-09T18:31:56.542Z,-3.36
2024-01-09T18:34:25.464Z,-3.39
2024-01-09T18:36:54.106Z,-3.44
2024-01-09T18:39:23.470Z,-3.29
2024-01-09T18:41:59.414Z,-3.83
2024-01-09T18:44:30.059Z,-3.64
2024-01-09T18:46:59.036Z,-3.63
2024-01-09T18:49:28.082Z,-3.56
2024-01-09T18:51:57.166Z,-3.53
2024-01-09T18:54:26.288Z,-3.60
2024-01-09T18:56:54.965Z,-3.67
2024-01-09T18:59:23.782Z,-4.00
2024-01-09T19:01:53.042Z,-3.89
2024-01-09T19:04:21.926Z,-3.77
2024-01-09T19:06:50.747Z,-3.96
2024-01-09T19:09:19.346Z,-3.89
2024-01-09T19:11:47.988Z,-3.87
2024-01-09T19:14:19.482Z,-4.20
2024-01-09T19:16:48.613Z,-4.11
2024-01-09T19:19:18.243Z,-4.20
2024-01-09T19:21:47.481Z,-4.14
2024-01-09T19:24:18.526Z,-3.92
2024-01-09T19:26:48.301Z,-3.82
2024-01-09T19:29:20.743Z,-3.85
2024-01-09T19:31:51.403Z,-3.71
2024-01-09T19:34:21.446Z,-3.67
2024-01-09T19:36:50.283Z,-3.89
2024-01-09T19:39:19.088Z,-3.80
2024-01-09T19:41:47.699Z,-3.64
2024-01-09T19:44:17.753Z,-3.51
2024-01-09T19:46:46.543Z,-3.37
2024-01-09T19:49:15.713Z,-3.35
2024-01-09T19:51:44.800Z,-3.45
2024-01-09T19:54:13.854Z,-3.53
2024-01-09T19:56:42.777Z,-3.51
2024-01-09T19:59:12.196Z,-3.63
2024-01-09T20:01:45.268Z,-3.55
2024-01-09T20:04:14.141Z,-3.42
2024-01-09T20:06:43.457Z,-3.37
2024-01-09T20:09:12.775Z,-3.36
2024-01-09T20:11:41.627Z,-3.58
2024-01-09T20:14:10.405Z,-3.43
2024-01-09T20:16:39.554Z,-3.33
2024-01-09T20:19:08.293Z,-3.47
2024-01-09T20:21:41.339Z,-3.93
2024-01-09T20:24:10.168Z,-3.73
2024-01-09T20:26:39.903Z,-3.72
2024-01-09T20:29:12.418Z,-3.69
2024-01-09T20:31:46.189Z,-3.58
2024-01-09T20:34:15.752Z,-3.91
2024-01-09T20:36:44.852Z,-3.74
2024-01-09T20:39:19.483Z,-3.68
2024-01-09T20:41:48.232Z,-3.61
2024-01-09T20:44:21.644Z,-3.72
2024-01-09T20:46:50.352Z,-3.84
2024-01-09T20:49:18.882Z,-3.85
2024-01-09T20:51:47.541Z,-3.67
2024-01-09T20:54:16.145Z,-3.90
2024-01-09T20:56:44.705Z,-3.92
2024-01-09T20:59:13.439Z,-3.71
2024-01-09T21:01:42.563Z,-3.50
2024-01-09T21:04:13.942Z,-3.43
2024-01-09T21:06:47.543Z,-3.48
2024-01-09T21:09:16.198Z,-3.37
2024-01-09T21:11:44.568Z,-3.29
2024-01-09T21:14:13.209Z,-3.13
2024-01-09T21:16:41.886Z,-3.00
2024-01-09T21:19:10.432Z,-3.03
2024-01-09T21:21:38.997Z,-3.05
2024-01-09T21:24:07.997Z,-2.97
2024-01-09T21:26:36.628Z,-2.88
2024-01-09T21:29:05.356Z,-2.83
2024-01-09T21:31:34.110Z,-2.80
2024-01-09T21:34:03.093Z,-2.94
2024-01-09T21:36:31.714Z,-2.78
2024-01-09T21:39:00.483Z,-2.78
2024-01-09T21:41:29.053Z,-2.80
2024-01-09T21:43:57.544Z,-2.82
2024-01-09T21:46:27.732Z,-2.74
2024-01-09T21:48:56.587Z,-3.01
2024-01-09T21:51:27.223Z,-3.13
2024-01-09T21:53:58.470Z,-3.66
2024-01-09T21:56:26.902Z,-3.56
2024-01-09T21:58:55.138Z,-3.52
2024-01-09T22:01:23.849Z,-3.36
2024-01-09T22:03:52.487Z,-3.39
2024-01-09T22:06:21.402Z,-3.31
2024-01-09T22:08:50.104Z,-3.58
2024-01-09T22:11:18.863Z,-3.62
2024-01-09T22:13:48.647Z,-3.51
2024-01-09T22:16:20.771Z,-3.44
2024-01-09T22:18:49.713Z,-3.31
2024-01-09T22:21:18.670Z,-3.35
2024-01-09T22:23:46.964Z,-3.32
2024-01-09T22:26:22.396Z,-3.23
2024-01-09T22:28:50.800Z,-3.11
2024-01-09T22:31:19.981Z,-3.21
2024-01-09T22:33:48.645Z,-3.04
2024-01-09T22:36:16.874Z,-2.99
2024-01-09T22:38:44.902Z,-2.89
2024-01-09T22:41:12.979Z,-2.76
2024-01-09T22:43:41.103Z,-2.71
2024-01-09T22:46:09.200Z,-2.58
2024-01-09T22:48:37.225Z,-2.59
2024-01-09T22:51:06.571Z,-2.73
2024-01-09T22:53:34.593Z,-2.73
2024-01-09T22:56:02.862Z,-2.70
2024-01-09T22:58:31.021Z,-2.77
2024-01-09T23:00:59.766Z,-2.79
2024-01-09T23:03:28.318Z,-2.73
2024-01-09T23:05:59.048Z,-2.70
2024-01-09T23:08:27.275Z,-2.63
2024-01-09T23:10:55.328Z,-2.61
2024-01-09T23:13:23.624Z,-2.62
2024-01-09T23:15:51.663Z,-2.68
2024-01-09T23:18:19.647Z,-2.62
2024-01-09T23:20:47.743Z,-2.61
2024-01-09T23:23:15.987Z,-2.61
2024-01-09T23:25:44.049Z,-2.57
2024-01-09T23:28:12.167Z,-2.70
2024-01-09T23:30:40.146Z,-2.62
2024-01-09T23:33:08.473Z,-2.56
2024-01-09T23:35:36.612Z,-2.61
2024-01-09T23:38:05.692Z,-2.71
2024-01-09T23:40:35.101Z,-2.70
2024-01-09T23:43:03.398Z,-2.76
2024-01-09T23:45:31.509Z,-2.77
2024-01-09T23:47:59.584Z,-2.78
2024-01-09T23:50:27.789Z,-2.82
2024-01-09T23:52:56.132Z,-2.80
2024-01-09T23:55:24.256Z,-2.79
2024-01-09T23:57:52.765Z,-2.75
